sensor_id;sensor_type;location;lat;lon;timestamp;temperature;humidity
68433;DHT22;55412;51.350;17.056;2023-03-26T00:00:41;9.40;63.90
68433;DHT22;55412;51.350;17.056;2023-03-26T00:03:12;9.40;64.20
68433;DHT22;55412;51.350;17.056;2023-03-26T00:05:41;9.40;63.80
68433;DHT22;55412;51.350;17.056;2023-03-26T00:08:08;9.40;63.90
68433;DHT22;55412;51.350;17.056;2023-03-26T00:10:36;9.30;64.00
68433;DHT22;55412;51.350;17.056;2023-03-26T00:13:04;9.30;63.90
68433;DHT22;55412;51.350;17.056;2023-03-26T00:15:32;9.30;64.00
68433;DHT22;55412;51.350;17.056;2023-03-26T00:17:59;9.30;64.20
68433;DHT22;55412;51.350;17.056;2023-03-26T00:20:27;9.20;64.20
68433;DHT22;55412;51.350;17.056;2023-03-26T00:22:55;9.20;63.90
68433;DHT22;55412;51.350;17.056;2023-03-26T00:25:22;9.20;63.80
68433;DHT22;55412;51.350;17.056;2023-03-26T00:27:49;9.20;64.00
68433;DHT22;55412;51.350;17.056;2023-03-26T00:30:15;9.20;64.00
68433;DHT22;55412;51.350;17.056;2023-03-26T00:32:43;9.20;63.90
68433;DHT22;55412;51.350;17.056;2023-03-26T00:35:09;9.20;64.00
68433;DHT22;55412;51.350;17.056;2023-03-26T00:37:36;9.20;64.00
68433;DHT22;55412;51.350;17.056;2023-03-26T00:40:02;9.20;63.90
68433;DHT22;55412;51.350;17.056;2023-03-26T00:42:32;9.20;63.80
68433;DHT22;55412;51.350;17.056;2023-03-26T00:44:58;9.20;64.00
68433;DHT22;55412;51.350;17.056;2023-03-26T00:47:26;9.20;63.90
68433;DHT22;55412;51.350;17.056;2023-03-26T00:49:53;9.20;64.00
68433;DHT22;55412;51.350;17.056;2023-03-26T00:52:20;9.30;64.10
68433;DHT22;55412;51.350;17.056;2023-03-26T00:54:49;9.30;64.10
68433;DHT22;55412;51.350;17.056;2023-03-26T00:57:17;9.30;64.10
68433;DHT22;55412;51.350;17.056;2023-03-26T00:59:48;9.30;64.20
68433;DHT22;55412;51.350;17.056;2023-03-26T01:02:16;9.40;64.30
68433;DHT22;55412;51.350;17.056;2023-03-26T01:04:57;9.40;64.00
68433;DHT22;55412;51.350;17.056;2023-03-26T01:07:28;9.40;63.80
68433;DHT22;55412;51.350;17.056;2023-03-26T01:09:57;9.40;63.90
68433;DHT22;55412;51.350;17.056;2023-03-26T01:12:26;9.50;63.80
68433;DHT22;55412;51.350;17.056;2023-03-26T01:14:58;9.50;63.70
68433;DHT22;55412;51.350;17.056;2023-03-26T01:17:26;9.50;63.70
68433;DHT22;55412;51.350;17.056;2023-03-26T01:20:15;9.60;63.60
68433;DHT22;55412;51.350;17.056;2023-03-26T01:22:50;9.60;63.60
68433;DHT22;55412;51.350;17.056;2023-03-26T01:25:19;9.60;63.60
68433;DHT22;55412;51.350;17.056;2023-03-26T01:27:55;9.60;63.80
68433;DHT22;55412;51.350;17.056;2023-03-26T01:30:33;9.60;63.90
68433;DHT22;55412;51.350;17.056;2023-03-26T01:33:26;9.60;64.00
68433;DHT22;55412;51.350;17.056;2023-03-26T01:36:16;9.60;63.80
68433;DHT22;55412;51.350;17.056;2023-03-26T01:39:00;9.60;63.60
68433;DHT22;55412;51.350;17.056;2023-03-26T01:41:32;9.60;63.90
68433;DHT22;55412;51.350;17.056;2023-03-26T01:44:32;9.60;63.40
68433;DHT22;55412;51.350;17.056;2023-03-26T01:47:12;9.60;63.30
68433;DHT22;55412;51.350;17.056;2023-03-26T01:49:38;9.60;63.60
68433;DHT22;55412;51.350;17.056;2023-03-26T01:52:25;9.60;63.50
68433;DHT22;55412;51.350;17.056;2023-03-26T01:54:54;9.60;63.50
68433;DHT22;55412;51.350;17.056;2023-03-26T02:00:28;9.50;63.70
68433;DHT22;55412;51.350;17.056;2023-03-26T02:06:15;9.50;63.70
68433;DHT22;55412;51.350;17.056;2023-03-26T02:08:58;9.50;63.60
68433;DHT22;55412;51.350;17.056;2023-03-26T02:11:29;9.50;64.00
68433;DHT22;55412;51.350;17.056;2023-03-26T02:13:56;9.50;63.90
68433;DHT22;55412;51.350;17.056;2023-03-26T02:16:22;9.50;63.90
68433;DHT22;55412;51.350;17.056;2023-03-26T02:18:48;9.50;64.20
68433;DHT22;55412;51.350;17.056;2023-03-26T02:21:22;9.50;64.00
68433;DHT22;55412;51.350;17.056;2023-03-26T02:23:53;9.40;64.00
68433;DHT22;55412;51.350;17.056;2023-03-26T02:26:29;9.40;64.10
68433;DHT22;55412;51.350;17.056;2023-03-26T02:28:56;9.40;64.50
68433;DHT22;55412;51.350;17.056;2023-03-26T02:31:23;9.40;64.30
68433;DHT22;55412;51.350;17.056;2023-03-26T02:33:53;9.30;64.20
68433;DHT22;55412;51.350;17.056;2023-03-26T02:36:20;9.30;64.40
68433;DHT22;55412;51.350;17.056;2023-03-26T02:38:50;9.30;64.20
68433;DHT22;55412;51.350;17.056;2023-03-26T02:41:16;9.30;64.20
68433;DHT22;55412;51.350;17.056;2023-03-26T02:43:42;9.30;64.40
68433;DHT22;55412;51.350;17.056;2023-03-26T02:46:08;9.30;64.40
68433;DHT22;55412;51.350;17.056;2023-03-26T02:48:34;9.30;64.70
68433;DHT22;55412;51.350;17.056;2023-03-26T02:51:01;9.30;64.90
68433;DHT22;55412;51.350;17.056;2023-03-26T02:53:28;9.30;64.80
68433;DHT22;55412;51.350;17.056;2023-03-26T02:55:56;9.30;65.10
68433;DHT22;55412;51.350;17.056;2023-03-26T02:58:22;9.30;65.40
68433;DHT22;55412;51.350;17.056;2023-03-26T03:00:52;9.40;65.70
68433;DHT22;55412;51.350;17.056;2023-03-26T03:03:25;9.40;66.00
68433;DHT22;55412;51.350;17.056;2023-03-26T03:05:53;9.30;66.60
68433;DHT22;55412;51.350;17.056;2023-03-26T03:08:21;9.30;66.90
68433;DHT22;55412;51.350;17.056;2023-03-26T03:10:59;9.30;67.10
68433;DHT22;55412;51.350;17.056;2023-03-26T03:13:28;9.40;67.30
68433;DHT22;55412;51.350;17.056;2023-03-26T03:15:54;9.30;67.30
68433;DHT22;55412;51.350;17.056;2023-03-26T03:18:21;9.40;67.50
68433;DHT22;55412;51.350;17.056;2023-03-26T03:20:47;9.30;67.60
68433;DHT22;55412;51.350;17.056;2023-03-26T03:23:14;9.30;67.50
68433;DHT22;55412;51.350;17.056;2023-03-26T03:25:41;9.30;67.50
68433;DHT22;55412;51.350;17.056;2023-03-26T03:28:07;9.30;67.60
68433;DHT22;55412;51.350;17.056;2023-03-26T03:30:34;9.30;67.70
68433;DHT22;55412;51.350;17.056;2023-03-26T03:33:01;9.30;67.60
68433;DHT22;55412;51.350;17.056;2023-03-26T03:35:28;9.30;67.60
68433;DHT22;55412;51.350;17.056;2023-03-26T03:37:56;9.30;67.40
68433;DHT22;55412;51.350;17.056;2023-03-26T03:40:22;9.30;67.30
68433;DHT22;55412;51.350;17.056;2023-03-26T03:42:48;9.30;67.20
68433;DHT22;55412;51.350;17.056;2023-03-26T03:45:15;9.30;66.40
68433;DHT22;55412;51.350;17.056;2023-03-26T03:47:41;9.30;66.50
68433;DHT22;55412;51.350;17.056;2023-03-26T03:50:08;9.40;66.90
68433;DHT22;55412;51.350;17.056;2023-03-26T03:52:35;9.40;66.80
68433;DHT22;55412;51.350;17.056;2023-03-26T03:55:01;9.30;66.90
68433;DHT22;55412;51.350;17.056;2023-03-26T03:57:28;9.30;66.90
68433;DHT22;55412;51.350;17.056;2023-03-26T03:59:56;9.30;66.90
68433;DHT22;55412;51.350;17.056;2023-03-26T04:02:26;9.30;67.10
68433;DHT22;55412;51.350;17.056;2023-03-26T04:04:57;9.30;67.20
68433;DHT22;55412;51.350;17.056;2023-03-26T04:07:24;9.40;67.10
68433;DHT22;55412;51.350;17.056;2023-03-26T04:09:50;9.40;67.10
68433;DHT22;55412;51.350;17.056;2023-03-26T04:12:17;9.40;66.90
68433;DHT22;55412;51.350;17.056;2023-03-26T04:14:43;9.40;67.10
68433;DHT22;55412;51.350;17.056;2023-03-26T04:17:09;9.30;67.20
68433;DHT22;55412;51.350;17.056;2023-03-26T04:19:38;9.40;67.20
68433;DHT22;55412;51.350;17.056;2023-03-26T04:22:05;9.40;67.30
68433;DHT22;55412;51.350;17.056;2023-03-26T04:24:32;9.30;67.10
68433;DHT22;55412;51.350;17.056;2023-03-26T04:27:10;9.40;67.00
68433;DHT22;55412;51.350;17.056;2023-03-26T04:29:40;9.40;66.70
68433;DHT22;55412;51.350;17.056;2023-03-26T04:32:20;9.40;66.50
68433;DHT22;55412;51.350;17.056;2023-03-26T04:34:51;9.40;66.50
68433;DHT22;55412;51.350;17.056;2023-03-26T04:37:31;9.40;66.40
68433;DHT22;55412;51.350;17.056;2023-03-26T04:40:04;9.40;66.60
68433;DHT22;55412;51.350;17.056;2023-03-26T04:42:35;9.40;66.50
68433;DHT22;55412;51.350;17.056;2023-03-26T04:45:07;9.40;66.60
68433;DHT22;55412;51.350;17.056;2023-03-26T04:47:33;9.40;66.50
68433;DHT22;55412;51.350;17.056;2023-03-26T04:50:03;9.40;66.20
68433;DHT22;55412;51.350;17.056;2023-03-26T04:52:30;9.40;65.90
68433;DHT22;55412;51.350;17.056;2023-03-26T04:54:56;9.40;66.00
68433;DHT22;55412;51.350;17.056;2023-03-26T04:57:31;9.40;66.00
68433;DHT22;55412;51.350;17.056;2023-03-26T05:00:04;9.40;65.50
68433;DHT22;55412;51.350;17.056;2023-03-26T05:02:39;9.50;65.60
68433;DHT22;55412;51.350;17.056;2023-03-26T05:05:07;9.50;65.70
68433;DHT22;55412;51.350;17.056;2023-03-26T05:07:34;9.50;65.60
68433;DHT22;55412;51.350;17.056;2023-03-26T05:10:01;9.50;65.60
68433;DHT22;55412;51.350;17.056;2023-03-26T05:12:29;9.50;65.70
68433;DHT22;55412;51.350;17.056;2023-03-26T05:14:55;9.50;65.30
68433;DHT22;55412;51.350;17.056;2023-03-26T05:17:22;9.50;65.10
68433;DHT22;55412;51.350;17.056;2023-03-26T05:19:49;9.50;65.30
68433;DHT22;55412;51.350;17.056;2023-03-26T05:22:17;9.50;65.30
68433;DHT22;55412;51.350;17.056;2023-03-26T05:24:43;9.50;65.30
68433;DHT22;55412;51.350;17.056;2023-03-26T05:27:14;9.50;65.20
68433;DHT22;55412;51.350;17.056;2023-03-26T05:29:42;9.60;65.20
68433;DHT22;55412;51.350;17.056;2023-03-26T05:32:08;9.60;65.30
68433;DHT22;55412;51.350;17.056;2023-03-26T05:34:35;9.60;65.20
68433;DHT22;55412;51.350;17.056;2023-03-26T05:37:03;9.60;65.40
68433;DHT22;55412;51.350;17.056;2023-03-26T05:39:29;9.50;65.50
68433;DHT22;55412;51.350;17.056;2023-03-26T05:41:55;9.60;65.50
68433;DHT22;55412;51.350;17.056;2023-03-26T05:44:21;9.50;65.60
68433;DHT22;55412;51.350;17.056;2023-03-26T05:46:47;9.60;65.70
68433;DHT22;55412;51.350;17.056;2023-03-26T05:49:13;9.60;65.70
68433;DHT22;55412;51.350;17.056;2023-03-26T05:51:39;9.60;66.00
68433;DHT22;55412;51.350;17.056;2023-03-26T05:54:05;9.60;66.10
68433;DHT22;55412;51.350;17.056;2023-03-26T05:56:31;9.60;65.80
68433;DHT22;55412;51.350;17.056;2023-03-26T05:58:57;9.70;66.10
68433;DHT22;55412;51.350;17.056;2023-03-26T06:01:23;9.70;65.60
68433;DHT22;55412;51.350;17.056;2023-03-26T06:03:51;9.70;65.70
68433;DHT22;55412;51.350;17.056;2023-03-26T06:06:18;9.70;65.50
68433;DHT22;55412;51.350;17.056;2023-03-26T06:08:47;9.80;65.40
68433;DHT22;55412;51.350;17.056;2023-03-26T06:11:16;9.80;65.40
68433;DHT22;55412;51.350;17.056;2023-03-26T06:13:44;9.80;65.60
68433;DHT22;55412;51.350;17.056;2023-03-26T06:16:12;9.80;65.60
68433;DHT22;55412;51.350;17.056;2023-03-26T06:18:39;9.80;65.60
68433;DHT22;55412;51.350;17.056;2023-03-26T06:21:06;9.80;65.70
68433;DHT22;55412;51.350;17.056;2023-03-26T06:23:32;9.80;65.90
68433;DHT22;55412;51.350;17.056;2023-03-26T06:25:58;9.80;65.90
68433;DHT22;55412;51.350;17.056;2023-03-26T06:28:24;9.80;66.00
68433;DHT22;55412;51.350;17.056;2023-03-26T06:30:51;9.90;65.80
68433;DHT22;55412;51.350;17.056;2023-03-26T06:33:17;9.90;65.80
68433;DHT22;55412;51.350;17.056;2023-03-26T06:35:44;10.00;66.00
68433;DHT22;55412;51.350;17.056;2023-03-26T06:38:11;10.00;65.70
68433;DHT22;55412;51.350;17.056;2023-03-26T06:40:37;10.00;65.50
68433;DHT22;55412;51.350;17.056;2023-03-26T06:43:03;10.00;65.60
68433;DHT22;55412;51.350;17.056;2023-03-26T06:45:32;10.00;65.50
68433;DHT22;55412;51.350;17.056;2023-03-26T06:47:58;9.90;65.70
68433;DHT22;55412;51.350;17.056;2023-03-26T06:50:25;9.90;65.70
68433;DHT22;55412;51.350;17.056;2023-03-26T06:52:55;9.90;65.90
68433;DHT22;55412;51.350;17.056;2023-03-26T06:55:21;9.90;65.80
68433;DHT22;55412;51.350;17.056;2023-03-26T06:57:49;9.90;65.60
68433;DHT22;55412;51.350;17.056;2023-03-26T07:00:16;10.00;65.80
68433;DHT22;55412;51.350;17.056;2023-03-26T07:02:43;10.00;65.90
68433;DHT22;55412;51.350;17.056;2023-03-26T07:05:10;10.00;65.70
68433;DHT22;55412;51.350;17.056;2023-03-26T07:07:36;10.00;65.40
68433;DHT22;55412;51.350;17.056;2023-03-26T07:10:03;10.10;65.40
68433;DHT22;55412;51.350;17.056;2023-03-26T07:12:30;10.10;65.20
68433;DHT22;55412;51.350;17.056;2023-03-26T07:14:56;10.10;65.60
68433;DHT22;55412;51.350;17.056;2023-03-26T07:17:24;10.10;65.40
68433;DHT22;55412;51.350;17.056;2023-03-26T07:19:50;10.20;65.60
68433;DHT22;55412;51.350;17.056;2023-03-26T07:22:22;10.20;64.60
68433;DHT22;55412;51.350;17.056;2023-03-26T07:24:49;10.30;65.20
68433;DHT22;55412;51.350;17.056;2023-03-26T07:31:07;10.40;64.60
68433;DHT22;55412;51.350;17.056;2023-03-26T07:34:04;10.50;64.40
68433;DHT22;55412;51.350;17.056;2023-03-26T07:36:52;10.40;64.00
68433;DHT22;55412;51.350;17.056;2023-03-26T07:40:02;10.40;64.20
68433;DHT22;55412;51.350;17.056;2023-03-26T07:42:49;10.30;64.50
68433;DHT22;55412;51.350;17.056;2023-03-26T07:45:40;10.40;64.70
68433;DHT22;55412;51.350;17.056;2023-03-26T07:50:42;10.40;64.30
68433;DHT22;55412;51.350;17.056;2023-03-26T07:53:09;10.40;63.80
68433;DHT22;55412;51.350;17.056;2023-03-26T07:55:49;10.50;63.40
68433;DHT22;55412;51.350;17.056;2023-03-26T08:01:37;10.60;62.90
68433;DHT22;55412;51.350;17.056;2023-03-26T08:22:49;10.70;62.90
68433;DHT22;55412;51.350;17.056;2023-03-26T08:26:12;10.80;62.30
68433;DHT22;55412;51.350;17.056;2023-03-26T08:31:32;11.20;61.30
68433;DHT22;55412;51.350;17.056;2023-03-26T08:34:00;11.30;61.40
68433;DHT22;55412;51.350;17.056;2023-03-26T08:36:26;11.40;61.00
68433;DHT22;55412;51.350;17.056;2023-03-26T08:38:54;11.50;60.50
68433;DHT22;55412;51.350;17.056;2023-03-26T08:41:45;11.50;60.60
68433;DHT22;55412;51.350;17.056;2023-03-26T08:45:03;11.50;60.50
68433;DHT22;55412;51.350;17.056;2023-03-26T08:54:05;12.00;59.80
68433;DHT22;55412;51.350;17.056;2023-03-26T08:56:50;11.90;58.90
68433;DHT22;55412;51.350;17.056;2023-03-26T08:59:43;11.80;59.80
68433;DHT22;55412;51.350;17.056;2023-03-26T09:36:25;12.30;59.30
68433;DHT22;55412;51.350;17.056;2023-03-26T09:42:21;13.80;56.00
68433;DHT22;55412;51.350;17.056;2023-03-26T09:56:27;15.00;51.80
68433;DHT22;55412;51.350;17.056;2023-03-26T10:05:49;14.70;49.80
68433;DHT22;55412;51.350;17.056;2023-03-26T10:08:46;15.10;48.30
68433;DHT22;55412;51.350;17.056;2023-03-26T10:18:11;14.40;49.30
68433;DHT22;55412;51.350;17.056;2023-03-26T10:23:37;13.80;48.00
68433;DHT22;55412;51.350;17.056;2023-03-26T10:29:29;13.40;49.60
68433;DHT22;55412;51.350;17.056;2023-03-26T10:35:35;13.10;50.20
68433;DHT22;55412;51.350;17.056;2023-03-26T10:46:51;12.30;54.10
68433;DHT22;55412;51.350;17.056;2023-03-26T10:53:24;12.60;54.50
68433;DHT22;55412;51.350;17.056;2023-03-26T10:55:55;12.90;54.70
68433;DHT22;55412;51.350;17.056;2023-03-26T10:58:27;13.10;53.50
68433;DHT22;55412;51.350;17.056;2023-03-26T11:13:15;13.30;51.70
68433;DHT22;55412;51.350;17.056;2023-03-26T11:15:50;13.50;51.70
68433;DHT22;55412;51.350;17.056;2023-03-26T11:26:58;13.70;50.00
68433;DHT22;55412;51.350;17.056;2023-03-26T11:29:45;13.80;50.60
68433;DHT22;55412;51.350;17.056;2023-03-26T11:32:21;13.90;48.90
68433;DHT22;55412;51.350;17.056;2023-03-26T11:35:13;13.70;48.80
68433;DHT22;55412;51.350;17.056;2023-03-26T11:37:46;13.50;48.90
68433;DHT22;55412;51.350;17.056;2023-03-26T11:40:21;13.30;48.60
68433;DHT22;55412;51.350;17.056;2023-03-26T11:42:55;13.10;49.30
68433;DHT22;55412;51.350;17.056;2023-03-26T11:45:27;13.00;49.60
68433;DHT22;55412;51.350;17.056;2023-03-26T11:48:12;12.80;49.10
68433;DHT22;55412;51.350;17.056;2023-03-26T11:50:44;12.60;50.00
68433;DHT22;55412;51.350;17.056;2023-03-26T11:53:17;12.50;50.00
68433;DHT22;55412;51.350;17.056;2023-03-26T11:56:02;12.50;49.60
68433;DHT22;55412;51.350;17.056;2023-03-26T12:01:41;12.30;50.10
68433;DHT22;55412;51.350;17.056;2023-03-26T12:04:14;12.20;50.60
68433;DHT22;55412;51.350;17.056;2023-03-26T12:09:24;12.30;50.10
68433;DHT22;55412;51.350;17.056;2023-03-26T12:11:54;12.30;50.00
68433;DHT22;55412;51.350;17.056;2023-03-26T12:14:27;12.40;50.50
68433;DHT22;55412;51.350;17.056;2023-03-26T12:17:24;12.50;50.80
68433;DHT22;55412;51.350;17.056;2023-03-26T12:19:55;12.60;51.10
68433;DHT22;55412;51.350;17.056;2023-03-26T12:22:38;12.70;50.40
68433;DHT22;55412;51.350;17.056;2023-03-26T12:25:18;12.80;50.50
68433;DHT22;55412;51.350;17.056;2023-03-26T12:27:51;13.00;49.90
68433;DHT22;55412;51.350;17.056;2023-03-26T12:30:23;13.00;49.80
68433;DHT22;55412;51.350;17.056;2023-03-26T12:32:51;13.10;50.10
68433;DHT22;55412;51.350;17.056;2023-03-26T12:35:24;13.10;49.50
68433;DHT22;55412;51.350;17.056;2023-03-26T12:37:53;13.10;50.40
68433;DHT22;55412;51.350;17.056;2023-03-26T12:40:33;13.20;50.90
68433;DHT22;55412;51.350;17.056;2023-03-26T12:43:24;13.30;52.20
68433;DHT22;55412;51.350;17.056;2023-03-26T12:45:55;13.50;53.00
68433;DHT22;55412;51.350;17.056;2023-03-26T12:48:23;13.60;50.80
68433;DHT22;55412;51.350;17.056;2023-03-26T12:57:24;13.90;51.70
68433;DHT22;55412;51.350;17.056;2023-03-26T13:05:37;13.90;50.50
68433;DHT22;55412;51.350;17.056;2023-03-26T13:08:40;13.80;50.10
68433;DHT22;55412;51.350;17.056;2023-03-26T13:11:18;13.80;49.90
68433;DHT22;55412;51.350;17.056;2023-03-26T13:14:31;13.70;50.80
68433;DHT22;55412;51.350;17.056;2023-03-26T13:20:30;13.50;51.70
68433;DHT22;55412;51.350;17.056;2023-03-26T13:29:59;13.30;53.00
68433;DHT22;55412;51.350;17.056;2023-03-26T13:32:28;13.30;53.20
68433;DHT22;55412;51.350;17.056;2023-03-26T13:38:22;13.30;54.00
68433;DHT22;55412;51.350;17.056;2023-03-26T13:41:20;13.40;53.30
68433;DHT22;55412;51.350;17.056;2023-03-26T13:47:04;13.70;51.20
68433;DHT22;55412;51.350;17.056;2023-03-26T13:49:48;13.80;51.30
68433;DHT22;55412;51.350;17.056;2023-03-26T13:52:39;13.80;50.40
68433;DHT22;55412;51.350;17.056;2023-03-26T13:55:37;13.80;50.10
68433;DHT22;55412;51.350;17.056;2023-03-26T13:58:37;13.70;50.00
68433;DHT22;55412;51.350;17.056;2023-03-26T14:01:20;13.70;49.50
68433;DHT22;55412;51.350;17.056;2023-03-26T14:04:28;13.60;50.10
68433;DHT22;55412;51.350;17.056;2023-03-26T14:07:11;13.50;49.60
68433;DHT22;55412;51.350;17.056;2023-03-26T14:18:45;13.30;50.50
68433;DHT22;55412;51.350;17.056;2023-03-26T14:24:53;13.20;50.90
68433;DHT22;55412;51.350;17.056;2023-03-26T14:28:00;13.20;51.80
68433;DHT22;55412;51.350;17.056;2023-03-26T14:30:50;13.20;51.80
68433;DHT22;55412;51.350;17.056;2023-03-26T14:33:50;13.20;51.90
68433;DHT22;55412;51.350;17.056;2023-03-26T14:40:15;13.10;51.30
68433;DHT22;55412;51.350;17.056;2023-03-26T14:43:22;13.10;51.70
68433;DHT22;55412;51.350;17.056;2023-03-26T14:46:25;13.10;51.80
68433;DHT22;55412;51.350;17.056;2023-03-26T14:52:27;13.20;52.30
68433;DHT22;55412;51.350;17.056;2023-03-26T15:10:24;13.40;50.90
68433;DHT22;55412;51.350;17.056;2023-03-26T15:22:27;13.50;50.10
68433;DHT22;55412;51.350;17.056;2023-03-26T15:25:20;13.60;50.10
68433;DHT22;55412;51.350;17.056;2023-03-26T15:34:25;13.70;49.70
68433;DHT22;55412;51.350;17.056;2023-03-26T15:45:35;13.60;49.20
68433;DHT22;55412;51.350;17.056;2023-03-26T15:54:48;13.50;49.40
68433;DHT22;55412;51.350;17.056;2023-03-26T16:03:18;13.30;50.20
68433;DHT22;55412;51.350;17.056;2023-03-26T16:09:23;13.30;51.70
68433;DHT22;55412;51.350;17.056;2023-03-26T16:14:46;13.20;51.40
68433;DHT22;55412;51.350;17.056;2023-03-26T16:21:22;13.10;52.00
68433;DHT22;55412;51.350;17.056;2023-03-26T16:29:21;13.00;52.80
68433;DHT22;55412;51.350;17.056;2023-03-26T16:35:36;12.90;52.90
68433;DHT22;55412;51.350;17.056;2023-03-26T16:41:00;12.80;53.30
68433;DHT22;55412;51.350;17.056;2023-03-26T16:43:45;12.80;53.50
68433;DHT22;55412;51.350;17.056;2023-03-26T16:49:27;12.70;53.80
68433;DHT22;55412;51.350;17.056;2023-03-26T16:55:01;12.60;53.80
68433;DHT22;55412;51.350;17.056;2023-03-26T16:57:49;12.50;54.50
68433;DHT22;55412;51.350;17.056;2023-03-26T17:00:35;12.50;55.80
68433;DHT22;55412;51.350;17.056;2023-03-26T17:17:37;12.10;56.20
68433;DHT22;55412;51.350;17.056;2023-03-26T17:26:16;11.90;55.40
68433;DHT22;55412;51.350;17.056;2023-03-26T17:32:11;11.80;55.60
68433;DHT22;55412;51.350;17.056;2023-03-26T17:34:58;11.70;55.90
68433;DHT22;55412;51.350;17.056;2023-03-26T17:37:39;11.70;56.20
68433;DHT22;55412;51.350;17.056;2023-03-26T17:40:29;11.60;56.30
68433;DHT22;55412;51.350;17.056;2023-03-26T17:43:34;11.50;56.50
68433;DHT22;55412;51.350;17.056;2023-03-26T17:46:35;11.50;56.60
68433;DHT22;55412;51.350;17.056;2023-03-26T17:49:20;11.50;56.50
68433;DHT22;55412;51.350;17.056;2023-03-26T17:52:01;11.40;56.50
68433;DHT22;55412;51.350;17.056;2023-03-26T17:54:53;11.40;56.30
68433;DHT22;55412;51.350;17.056;2023-03-26T17:57:35;11.40;56.50
68433;DHT22;55412;51.350;17.056;2023-03-26T18:00:10;11.30;56.80
68433;DHT22;55412;51.350;17.056;2023-03-26T18:03:20;11.30;57.00
68433;DHT22;55412;51.350;17.056;2023-03-26T18:05:53;11.30;57.50
68433;DHT22;55412;51.350;17.056;2023-03-26T18:15:10;11.20;58.00
68433;DHT22;55412;51.350;17.056;2023-03-26T18:18:00;11.10;57.80
68433;DHT22;55412;51.350;17.056;2023-03-26T18:20:34;11.10;57.90
68433;DHT22;55412;51.350;17.056;2023-03-26T18:23:19;11.00;57.60
68433;DHT22;55412;51.350;17.056;2023-03-26T18:25:57;11.00;57.40
68433;DHT22;55412;51.350;17.056;2023-03-26T18:28:44;10.90;57.40
68433;DHT22;55412;51.350;17.056;2023-03-26T18:31:19;10.90;57.10
68433;DHT22;55412;51.350;17.056;2023-03-26T18:33:54;10.80;57.10
68433;DHT22;55412;51.350;17.056;2023-03-26T18:36:25;10.80;57.10
68433;DHT22;55412;51.350;17.056;2023-03-26T18:38:57;10.80;57.10
68433;DHT22;55412;51.350;17.056;2023-03-26T18:41:31;10.70;57.00
68433;DHT22;55412;51.350;17.056;2023-03-26T18:44:14;10.70;57.30
68433;DHT22;55412;51.350;17.056;2023-03-26T18:46:43;10.70;59.80
68433;DHT22;55412;51.350;17.056;2023-03-26T18:49:13;10.60;60.10
68433;DHT22;55412;51.350;17.056;2023-03-26T18:51:41;10.50;60.70
68433;DHT22;55412;51.350;17.056;2023-03-26T18:54:15;10.40;60.30
68433;DHT22;55412;51.350;17.056;2023-03-26T18:56:47;10.40;60.80
68433;DHT22;55412;51.350;17.056;2023-03-26T18:59:29;10.20;60.20
68433;DHT22;55412;51.350;17.056;2023-03-26T19:02:04;10.10;60.30
68433;DHT22;55412;51.350;17.056;2023-03-26T19:04:34;10.10;60.60
68433;DHT22;55412;51.350;17.056;2023-03-26T19:07:03;10.00;60.50
68433;DHT22;55412;51.350;17.056;2023-03-26T19:09:32;10.00;60.80
68433;DHT22;55412;51.350;17.056;2023-03-26T19:12:20;9.90;61.10
68433;DHT22;55412;51.350;17.056;2023-03-26T19:15:05;9.90;61.30
68433;DHT22;55412;51.350;17.056;2023-03-26T19:17:47;9.80;61.60
68433;DHT22;55412;51.350;17.056;2023-03-26T19:20:19;9.80;62.10
68433;DHT22;55412;51.350;17.056;2023-03-26T19:22:48;9.80;62.40
68433;DHT22;55412;51.350;17.056;2023-03-26T19:27:57;9.70;62.60
68433;DHT22;55412;51.350;17.056;2023-03-26T19:30:31;9.70;62.40
68433;DHT22;55412;51.350;17.056;2023-03-26T19:33:14;9.80;62.50
68433;DHT22;55412;51.350;17.056;2023-03-26T19:35:44;9.70;62.30
68433;DHT22;55412;51.350;17.056;2023-03-26T19:38:25;9.80;62.20
68433;DHT22;55412;51.350;17.056;2023-03-26T19:40:56;9.80;62.50
68433;DHT22;55412;51.350;17.056;2023-03-26T19:43:24;9.70;62.60
68433;DHT22;55412;51.350;17.056;2023-03-26T19:45:52;9.70;62.80
68433;DHT22;55412;51.350;17.056;2023-03-26T19:48:20;9.80;62.70
68433;DHT22;55412;51.350;17.056;2023-03-26T19:51:17;9.70;63.10
68433;DHT22;55412;51.350;17.056;2023-03-26T19:53:57;9.70;63.80
68433;DHT22;55412;51.350;17.056;2023-03-26T19:56:25;9.70;63.80
68433;DHT22;55412;51.350;17.056;2023-03-26T19:58:53;9.60;63.80
68433;DHT22;55412;51.350;17.056;2023-03-26T20:01:23;9.60;64.20
68433;DHT22;55412;51.350;17.056;2023-03-26T20:03:54;9.70;64.20
68433;DHT22;55412;51.350;17.056;2023-03-26T20:06:23;9.60;64.20
68433;DHT22;55412;51.350;17.056;2023-03-26T20:08:53;9.60;64.10
68433;DHT22;55412;51.350;17.056;2023-03-26T20:11:26;9.60;64.10
68433;DHT22;55412;51.350;17.056;2023-03-26T20:13:59;9.60;64.20
68433;DHT22;55412;51.350;17.056;2023-03-26T20:16:35;9.60;64.20
68433;DHT22;55412;51.350;17.056;2023-03-26T20:19:40;9.60;64.10
68433;DHT22;55412;51.350;17.056;2023-03-26T20:22:16;9.60;64.00
68433;DHT22;55412;51.350;17.056;2023-03-26T20:24:46;9.60;64.10
68433;DHT22;55412;51.350;17.056;2023-03-26T20:27:13;9.60;64.50
68433;DHT22;55412;51.350;17.056;2023-03-26T20:29:40;9.60;64.30
68433;DHT22;55412;51.350;17.056;2023-03-26T20:32:18;9.50;64.30
68433;DHT22;55412;51.350;17.056;2023-03-26T20:34:48;9.50;64.40
68433;DHT22;55412;51.350;17.056;2023-03-26T20:37:17;9.50;64.40
68433;DHT22;55412;51.350;17.056;2023-03-26T20:39:44;9.50;64.30
68433;DHT22;55412;51.350;17.056;2023-03-26T20:42:10;9.50;64.40
68433;DHT22;55412;51.350;17.056;2023-03-26T20:44:38;9.50;64.30
68433;DHT22;55412;51.350;17.056;2023-03-26T20:47:05;9.50;64.90
68433;DHT22;55412;51.350;17.056;2023-03-26T20:49:31;9.50;64.80
68433;DHT22;55412;51.350;17.056;2023-03-26T20:51:57;9.50;65.10
68433;DHT22;55412;51.350;17.056;2023-03-26T20:54:25;9.50;65.10
68433;DHT22;55412;51.350;17.056;2023-03-26T20:56:53;9.50;65.30
68433;DHT22;55412;51.350;17.056;2023-03-26T20:59:21;9.50;65.40
68433;DHT22;55412;51.350;17.056;2023-03-26T21:01:51;9.50;65.10
68433;DHT22;55412;51.350;17.056;2023-03-26T21:04:19;9.50;64.70
68433;DHT22;55412;51.350;17.056;2023-03-26T21:06:46;9.50;65.10
68433;DHT22;55412;51.350;17.056;2023-03-26T21:09:14;9.50;65.30
68433;DHT22;55412;51.350;17.056;2023-03-26T21:14:24;9.50;64.70
68433;DHT22;55412;51.350;17.056;2023-03-26T21:17:10;9.50;66.20
68433;DHT22;55412;51.350;17.056;2023-03-26T21:19:39;9.50;65.80
68433;DHT22;55412;51.350;17.056;2023-03-26T21:25:00;9.40;66.20
68433;DHT22;55412;51.350;17.056;2023-03-26T21:30:10;9.20;66.70
68433;DHT22;55412;51.350;17.056;2023-03-26T21:32:39;9.20;67.20